Avinger, Texas
Current Conditions -  °F | °C
As of 1:55 PM on Wednesday 26 Nov 2014 (Local Time) from KOSA Reporting Station
Clear Clear  
Wind Chill: 65°   Ceiling: Unl
Heat Index: 65°   Visibility: 10mi
Dew Point: 31°   Wind: 9mph
Humidity: 28%   Direction: 310°NW
Pressure: 30.14"   Gusts: 16mph
Location:  32.9°N, 94.56°W
Report Text: KOSA 261955Z AUTO 31008G14KT 10SM CLR 18/M01 A3014 RMK AO1 T01821008
Loading
Personal Weather Stations






























Interactive Weather Map New forecast layout! Learn more

10-Day Weather Forecast

Advertisements
Track Severe Weather on mobile